createdAt,value
2022-11-25T00:00:00.928Z,1.71
2022-11-25T00:02:27.492Z,1.53
2022-11-25T00:04:54.091Z,1.65
2022-11-25T00:07:20.657Z,1.58
2022-11-25T00:09:47.124Z,1.52
2022-11-25T00:12:13.555Z,1.69
2022-11-25T00:14:40.032Z,1.45
2022-11-25T00:17:06.535Z,1.09
2022-11-25T00:19:33.554Z,1.43
2022-11-25T00:21:59.994Z,1.18
2022-11-25T00:24:27.353Z,1.50
2022-11-25T00:26:53.785Z,1.44
2022-11-25T00:29:20.231Z,1.60
2022-11-25T00:31:46.723Z,1.29
2022-11-25T00:34:14.611Z,1.50
2022-11-25T00:36:41.240Z,1.48
2022-11-25T00:39:13.749Z,1.26
2022-11-25T00:42:00.138Z,1.46
2022-11-25T00:44:37.311Z,1.53
2022-11-25T00:47:08.085Z,1.55
2022-11-25T00:49:35.194Z,1.22
2022-11-25T00:52:02.159Z,1.39
2022-11-25T00:54:28.647Z,1.43
2022-11-25T00:56:55.164Z,1.45
2022-11-25T00:59:21.658Z,1.29
2022-11-25T01:01:48.458Z,1.32
2022-11-25T01:04:15.411Z,1.41
2022-11-25T01:06:41.906Z,0.99
2022-11-25T01:09:09.098Z,1.15
2022-11-25T01:11:38.565Z,1.41
2022-11-25T01:14:05.372Z,1.16
2022-11-25T01:16:32.329Z,1.31
2022-11-25T01:19:00.430Z,1.41
2022-11-25T01:21:29.815Z,1.40
2022-11-25T01:23:56.663Z,1.21
2022-11-25T01:26:24.909Z,1.10
2022-11-25T01:29:00.137Z,1.01
2022-11-25T01:31:29.471Z,1.34
2022-11-25T01:33:58.935Z,1.13
2022-11-25T01:36:25.855Z,1.39
2022-11-25T01:38:55.188Z,1.35
2022-11-25T01:41:23.428Z,1.03
2022-11-25T01:44:14.373Z,1.28
2022-11-25T01:46:49.963Z,1.31
2022-11-25T01:49:26.872Z,1.08
2022-11-25T01:51:53.269Z,1.24
2022-11-25T01:54:24.030Z,1.35
2022-11-25T01:56:56.444Z,1.12
2022-11-25T01:59:23.838Z,1.42
2022-11-25T02:01:50.693Z,1.32
2022-11-25T02:04:20.279Z,1.16
2022-11-25T02:06:57.652Z,1.33
2022-11-25T02:09:27.032Z,1.15
2022-11-25T02:11:54.104Z,0.97
2022-11-25T02:14:22.459Z,1.02
2022-11-25T02:16:51.999Z,1.21
2022-11-25T02:19:32.077Z,1.43
2022-11-25T02:22:05.079Z,1.31
2022-11-25T02:24:43.003Z,1.29
2022-11-25T02:27:09.605Z,1.40
2022-11-25T02:29:37.409Z,1.35
2022-11-25T02:32:05.909Z,0.92
2022-11-25T02:34:32.470Z,1.28
2022-11-25T02:37:00.587Z,1.20
2022-11-25T02:39:28.610Z,1.22
2022-11-25T02:42:00.129Z,1.08
2022-11-25T02:44:27.381Z,1.01
2022-11-25T02:46:53.827Z,1.10
2022-11-25T02:49:20.395Z,1.07
2022-11-25T02:51:47.895Z,1.11
2022-11-25T02:54:17.508Z,1.01
2022-11-25T02:56:43.981Z,1.07
2022-11-25T02:59:11.112Z,1.01
2022-11-25T03:01:39.007Z,0.80
2022-11-25T03:04:07.747Z,0.92
2022-11-25T03:06:35.054Z,1.00
2022-11-25T03:09:02.549Z,0.97
2022-11-25T03:11:48.481Z,0.96
2022-11-25T03:14:15.525Z,0.75
2022-11-25T03:16:43.054Z,0.72
2022-11-25T03:19:09.711Z,0.90
2022-11-25T03:21:36.735Z,0.95
2022-11-25T03:24:03.322Z,0.88
2022-11-25T03:26:29.839Z,0.93
2022-11-25T03:28:56.320Z,0.91
2022-11-25T03:31:23.176Z,0.89
2022-11-25T03:33:49.684Z,1.10
2022-11-25T03:36:16.032Z,1.15
2022-11-25T03:38:42.545Z,1.02
2022-11-25T03:41:09.121Z,0.88
2022-11-25T03:43:36.481Z,0.65
2022-11-25T03:46:03.067Z,0.75
2022-11-25T03:48:30.315Z,0.81
2022-11-25T03:50:56.970Z,0.87
2022-11-25T03:53:25.242Z,0.71
2022-11-25T03:55:52.103Z,0.83
2022-11-25T03:58:21.459Z,0.93
2022-11-25T04:00:49.685Z,0.99
2022-11-25T04:03:16.664Z,0.89
2022-11-25T04:05:43.599Z,0.94
2022-11-25T04:08:10.074Z,0.88
2022-11-25T04:10:38.127Z,0.79
2022-11-25T04:13:05.940Z,0.77
2022-11-25T04:15:44.850Z,0.83
2022-11-25T04:18:11.374Z,1.01
2022-11-25T04:20:39.144Z,0.83
2022-11-25T04:23:08.447Z,0.84
2022-11-25T04:25:40.947Z,0.85
2022-11-25T04:28:12.450Z,0.65
2022-11-25T04:30:39.547Z,0.86
2022-11-25T04:33:06.523Z,0.63
2022-11-25T04:35:33.024Z,0.37
2022-11-25T04:37:59.598Z,0.34
2022-11-25T04:40:26.132Z,0.61
2022-11-25T04:43:10.862Z,0.58
2022-11-25T04:48:28.919Z,0.57
2022-11-25T04:50:55.827Z,0.40
2022-11-25T04:53:22.458Z,0.51
2022-11-25T04:55:49.072Z,0.71
2022-11-25T04:58:35.786Z,0.56
2022-11-25T05:01:03.195Z,0.67
2022-11-25T05:03:30.235Z,0.70
2022-11-25T05:05:56.979Z,0.37
2022-11-25T05:08:23.999Z,0.34
2022-11-25T05:10:50.535Z,0.34
2022-11-25T05:13:17.168Z,0.14
2022-11-25T05:15:44.236Z,0.21
2022-11-25T05:18:12.374Z,-0.05
2022-11-25T05:20:44.419Z,-0.01
2022-11-25T05:23:11.595Z,0.29
2022-11-25T05:25:38.106Z,0.50
2022-11-25T05:28:26.198Z,0.16
2022-11-25T05:30:53.304Z,0.41
2022-11-25T05:33:20.299Z,0.43
2022-11-25T05:36:01.353Z,0.39
2022-11-25T05:38:35.049Z,0.31
2022-11-25T05:41:04.696Z,0.41
2022-11-25T05:43:31.599Z,0.55
2022-11-25T05:46:00.286Z,0.55
2022-11-25T05:48:27.031Z,0.55
2022-11-25T05:50:53.556Z,0.51
2022-11-25T05:53:22.806Z,0.12
2022-11-25T05:56:00.002Z,0.54
2022-11-25T05:58:50.509Z,0.41
2022-11-25T06:01:17.594Z,0.39
2022-11-25T06:03:45.331Z,0.68
2022-11-25T06:06:12.079Z,0.62
2022-11-25T06:08:39.796Z,0.31
2022-11-25T06:11:12.221Z,0.43
2022-11-25T06:13:39.349Z,0.30
2022-11-25T06:16:09.345Z,0.26
2022-11-25T06:18:37.502Z,0.16
2022-11-25T06:21:07.191Z,0.19
2022-11-25T06:23:34.290Z,0.41
2022-11-25T06:26:13.692Z,0.25
2022-11-25T06:28:40.463Z,0.18
2022-11-25T06:31:15.530Z,0.17
2022-11-25T06:33:53.825Z,0.47
2022-11-25T06:36:22.269Z,0.45
2022-11-25T06:38:51.839Z,0.27
2022-11-25T06:41:18.904Z,0.52
2022-11-25T06:43:45.442Z,0.59
2022-11-25T06:46:18.524Z,0.41
2022-11-25T06:48:49.581Z,0.67
2022-11-25T06:51:16.484Z,0.38
2022-11-25T06:53:43.626Z,0.46
2022-11-25T06:56:14.441Z,0.74
2022-11-25T06:58:42.239Z,0.83
2022-11-25T07:01:17.511Z,0.90
2022-11-25T07:03:45.601Z,0.98
2022-11-25T07:06:13.668Z,0.92
2022-11-25T07:08:40.770Z,0.99
2022-11-25T07:11:10.578Z,0.85
2022-11-25T07:13:37.075Z,0.43
2022-11-25T07:16:05.578Z,0.53
2022-11-25T07:18:34.254Z,0.75
2022-11-25T07:21:09.449Z,0.90
2022-11-25T07:23:37.541Z,1.00
2022-11-25T07:26:15.148Z,0.89
2022-11-25T07:28:42.496Z,0.86
2022-11-25T07:31:24.206Z,0.74
2022-11-25T07:33:55.867Z,0.94
2022-11-25T07:36:23.182Z,1.02
2022-11-25T07:38:49.684Z,0.78
2022-11-25T07:41:24.533Z,0.93
2022-11-25T07:43:54.486Z,0.70
2022-11-25T07:46:34.653Z,0.97
2022-11-25T07:49:05.299Z,1.00
2022-11-25T07:51:40.909Z,1.12
2022-11-25T07:54:10.062Z,1.25
2022-11-25T07:56:38.813Z,0.82
2022-11-25T07:59:06.319Z,1.01
2022-11-25T08:01:32.830Z,1.18
2022-11-25T08:03:59.394Z,1.18
2022-11-25T08:06:28.714Z,1.03
2022-11-25T08:08:56.710Z,1.08
2022-11-25T08:11:29.509Z,1.14
2022-11-25T08:13:57.249Z,1.30
2022-11-25T08:16:27.243Z,0.73
2022-11-25T08:18:54.854Z,0.90
2022-11-25T08:21:21.531Z,0.86
2022-11-25T08:23:48.855Z,1.06
2022-11-25T08:26:20.693Z,0.80
2022-11-25T08:28:47.653Z,0.83
2022-11-25T08:31:20.937Z,0.80
2022-11-25T08:33:48.268Z,1.03
2022-11-25T08:36:15.901Z,0.95
2022-11-25T08:38:43.076Z,0.82
2022-11-25T08:41:12.653Z,1.13
2022-11-25T08:43:39.373Z,1.05
2022-11-25T08:46:12.100Z,1.28
2022-11-25T08:48:38.671Z,1.18
2022-11-25T08:51:18.386Z,1.27
2022-11-25T08:53:46.818Z,1.28
2022-11-25T08:56:14.918Z,1.03
2022-11-25T08:58:41.720Z,0.88
2022-11-25T09:01:09.551Z,0.79
2022-11-25T09:03:42.055Z,1.15
2022-11-25T09:06:09.538Z,1.17
2022-11-25T09:08:37.599Z,1.45
2022-11-25T09:11:04.672Z,0.70
2022-11-25T09:13:31.441Z,0.84
2022-11-25T09:15:58.377Z,1.23
2022-11-25T09:18:26.261Z,1.19
2022-11-25T09:20:53.821Z,1.56
2022-11-25T09:23:20.591Z,1.56
2022-11-25T09:25:55.035Z,1.37
2022-11-25T09:28:22.609Z,1.13
2022-11-25T09:30:50.027Z,1.38
2022-11-25T09:33:17.252Z,1.31
2022-11-25T09:35:44.051Z,1.73
2022-11-25T09:38:10.555Z,1.56
2022-11-25T09:40:49.397Z,1.00
2022-11-25T09:43:56.368Z,1.42
2022-11-25T09:46:56.731Z,1.74
2022-11-25T09:49:40.945Z,1.49
2022-11-25T09:52:20.001Z,2.00
2022-11-25T09:54:59.489Z,1.62
2022-11-25T09:58:03.448Z,1.88
2022-11-25T10:00:40.877Z,1.95
2022-11-25T10:03:29.318Z,2.21
2022-11-25T10:06:18.905Z,2.04
2022-11-25T10:08:51.473Z,2.19
2022-11-25T10:11:21.711Z,2.09
2022-11-25T10:13:52.608Z,1.82
2022-11-25T10:16:33.536Z,2.17
2022-11-25T10:19:08.290Z,2.13
2022-11-25T10:21:34.739Z,2.06
2022-11-25T10:24:02.857Z,1.95
2022-11-25T10:26:37.177Z,2.04
2022-11-25T10:29:30.515Z,2.09
2022-11-25T10:32:09.267Z,1.87
2022-11-25T10:34:45.714Z,1.74
2022-11-25T10:37:24.918Z,1.60
2022-11-25T10:39:51.391Z,1.94
2022-11-25T10:42:25.125Z,2.26
2022-11-25T10:44:52.119Z,1.60
2022-11-25T10:47:44.247Z,2.32
2022-11-25T10:50:15.979Z,2.37
2022-11-25T10:52:50.116Z,2.75
2022-11-25T10:55:28.981Z,2.63
2022-11-25T10:57:56.113Z,3.09
2022-11-25T11:00:31.114Z,3.70
2022-11-25T11:02:58.699Z,3.03
2022-11-25T11:05:30.811Z,3.87
2022-11-25T11:08:12.283Z,3.36
2022-11-25T11:10:39.494Z,3.76
2022-11-25T11:13:17.846Z,3.58
2022-11-25T11:33:31.015Z,3.94
2022-11-25T11:36:34.990Z,3.86
2022-11-25T11:39:08.374Z,3.74
2022-11-25T11:41:56.610Z,4.43
2022-11-25T11:44:35.363Z,4.49
2022-11-25T11:47:12.614Z,4.05
2022-11-25T11:50:09.391Z,4.24
2022-11-25T11:52:56.519Z,4.09
2022-11-25T11:56:11.691Z,4.33
2022-11-25T11:58:59.051Z,4.36
2022-11-25T12:01:44.298Z,4.71
2022-11-25T12:04:27.862Z,4.65
2022-11-25T12:07:12.144Z,4.61
2022-11-25T12:10:14.058Z,4.74
2022-11-25T12:12:48.566Z,4.49
2022-11-25T12:15:30.011Z,4.57
2022-11-25T12:18:02.520Z,4.82
2022-11-25T12:20:52.961Z,4.92
2022-11-25T12:23:36.177Z,4.67
2022-11-25T12:26:09.950Z,4.64
2022-11-25T12:28:43.735Z,4.80
2022-11-25T12:31:25.918Z,4.82
2022-11-25T12:34:00.170Z,5.01
2022-11-25T12:36:34.376Z,4.87
2022-11-25T12:39:19.434Z,4.67
2022-11-25T12:41:54.846Z,4.88
2022-11-25T12:44:42.838Z,4.94
2022-11-25T12:47:11.470Z,4.92
2022-11-25T12:49:47.114Z,4.93
2022-11-25T12:52:39.232Z,4.85
2022-11-25T12:55:08.940Z,5.01
2022-11-25T12:58:00.087Z,4.94
2022-11-25T13:01:03.551Z,5.16
2022-11-25T13:04:07.346Z,5.02
2022-11-25T13:06:52.542Z,4.79
2022-11-25T13:09:39.054Z,4.87
2022-11-25T13:12:41.868Z,4.98
2022-11-25T13:15:27.190Z,5.04
2022-11-25T13:18:16.655Z,5.09
2022-11-25T13:20:45.777Z,5.05
2022-11-25T13:23:13.021Z,4.91
2022-11-25T13:25:42.901Z,4.81
2022-11-25T13:28:37.715Z,4.98
2022-11-25T13:31:13.290Z,4.73
2022-11-25T13:33:42.546Z,4.83
2022-11-25T13:36:19.944Z,4.86
2022-11-25T13:38:49.400Z,4.87
2022-11-25T13:41:15.986Z,4.81
2022-11-25T13:44:02.524Z,4.90
2022-11-25T13:46:45.450Z,4.85
2022-11-25T13:49:42.363Z,4.85
2022-11-25T13:52:11.800Z,4.67
2022-11-25T13:54:49.681Z,4.67
2022-11-25T13:57:31.352Z,4.77
2022-11-25T14:00:05.912Z,4.65
2022-11-25T14:02:49.278Z,4.92
2022-11-25T14:05:36.660Z,5.02
2022-11-25T14:08:19.359Z,4.94
2022-11-25T14:10:53.283Z,4.98
2022-11-25T14:13:44.323Z,4.92
2022-11-25T14:16:29.472Z,4.93
2022-11-25T14:19:50.704Z,4.80
2022-11-25T14:22:12.500Z,4.90
2022-11-25T14:24:49.600Z,4.87
2022-11-25T14:27:31.970Z,4.84
2022-11-25T14:30:06.695Z,4.67
2022-11-25T14:32:36.777Z,4.71
2022-11-25T14:35:11.503Z,4.83
2022-11-25T14:37:59.136Z,4.85
2022-11-25T14:40:36.537Z,4.75
2022-11-25T14:43:07.980Z,4.87
2022-11-25T14:45:35.934Z,4.86
2022-11-25T14:48:18.915Z,4.86
2022-11-25T14:50:56.374Z,4.88
2022-11-25T14:53:22.890Z,4.74
2022-11-25T14:55:49.432Z,4.84
2022-11-25T14:58:16.423Z,4.79
2022-11-25T15:01:04.088Z,4.83
2022-11-25T15:03:30.744Z,4.85
2022-11-25T15:06:02.653Z,4.80
2022-11-25T15:08:39.690Z,4.78
2022-11-25T15:11:12.786Z,4.84
2022-11-25T15:13:42.175Z,4.77
2022-11-25T15:16:30.282Z,4.87
2022-11-25T15:18:59.059Z,4.86
2022-11-25T15:22:14.639Z,4.66
2022-11-25T15:24:29.595Z,4.86
2022-11-25T15:26:59.903Z,4.75
2022-11-25T15:29:28.794Z,4.81
2022-11-25T15:31:56.512Z,4.77
2022-11-25T15:34:23.991Z,4.76
2022-11-25T15:36:54.473Z,4.77
2022-11-25T15:39:20.944Z,4.83
2022-11-25T15:41:49.501Z,4.89
2022-11-25T15:44:29.409Z,4.69
2022-11-25T15:47:05.121Z,4.78
2022-11-25T15:49:33.934Z,4.69
2022-11-25T15:52:08.931Z,4.65
2022-11-25T15:54:42.893Z,4.75
2022-11-25T15:57:23.311Z,4.83
2022-11-25T16:00:05.438Z,4.85
2022-11-25T16:02:41.954Z,4.84
2022-11-25T16:05:32.272Z,4.85
2022-11-25T16:08:23.064Z,4.85
2022-11-25T16:10:52.938Z,4.86
2022-11-25T16:13:25.648Z,4.85
2022-11-25T16:15:58.078Z,4.85
2022-11-25T16:18:46.667Z,4.85
2022-11-25T16:21:30.218Z,4.82
2022-11-25T16:24:14.183Z,4.82
2022-11-25T16:27:00.665Z,4.84
2022-11-25T16:29:31.623Z,4.77
2022-11-25T16:31:59.210Z,4.82
2022-11-25T16:34:26.948Z,4.84
2022-11-25T16:36:54.242Z,4.63
2022-11-25T16:39:20.685Z,4.67
2022-11-25T16:41:54.648Z,4.80
2022-11-25T16:44:23.190Z,4.78
2022-11-25T16:46:51.057Z,4.75
2022-11-25T16:49:18.951Z,4.85
2022-11-25T16:51:45.772Z,4.72
2022-11-25T16:54:12.760Z,4.91
2022-11-25T16:56:42.360Z,4.71
2022-11-25T16:59:20.725Z,4.92
2022-11-25T17:01:47.405Z,4.70
2022-11-25T17:04:14.985Z,4.84
2022-11-25T17:06:42.165Z,4.93
2022-11-25T17:09:08.718Z,4.92
2022-11-25T17:11:52.047Z,4.93
2022-11-25T17:14:24.841Z,4.93
2022-11-25T17:16:51.632Z,4.96
2022-11-25T17:19:18.204Z,4.86
2022-11-25T17:21:44.925Z,4.80
2022-11-25T17:24:22.578Z,4.87
2022-11-25T17:26:59.559Z,4.78
2022-11-25T17:29:35.219Z,4.67
2022-11-25T17:32:02.724Z,4.49
2022-11-25T17:34:29.300Z,4.43
2022-11-25T17:36:56.437Z,4.44
2022-11-25T17:39:22.896Z,4.35
2022-11-25T17:41:51.617Z,4.34
2022-11-25T17:44:28.771Z,4.26
2022-11-25T17:46:56.877Z,4.19
2022-11-25T17:49:24.120Z,4.15
2022-11-25T17:51:50.781Z,4.16
2022-11-25T17:54:17.832Z,3.89
2022-11-25T17:56:49.188Z,4.16
2022-11-25T17:59:28.290Z,4.24
2022-11-25T18:01:56.056Z,4.05
2022-11-25T18:04:32.111Z,3.97
2022-11-25T18:06:58.536Z,3.85
2022-11-25T18:09:24.934Z,4.13
2022-11-25T18:11:54.360Z,3.76
2022-11-25T18:14:28.366Z,4.07
2022-11-25T18:16:55.311Z,4.09
2022-11-25T18:19:21.964Z,4.01
2022-11-25T18:21:48.463Z,3.93
2022-11-25T18:24:14.843Z,3.77
2022-11-25T18:26:48.015Z,3.45
2022-11-25T18:29:20.028Z,3.47
2022-11-25T18:31:47.201Z,3.34
2022-11-25T18:34:15.446Z,3.35
2022-11-25T18:36:42.797Z,3.25
2022-11-25T18:39:10.114Z,3.20
2022-11-25T18:41:38.225Z,3.21
2022-11-25T18:44:06.615Z,2.94
2022-11-25T18:46:37.724Z,3.04
2022-11-25T18:49:14.480Z,3.23
2022-11-25T18:51:41.818Z,3.19
2022-11-25T18:54:09.561Z,3.26
2022-11-25T18:56:37.688Z,3.03
2022-11-25T18:59:06.278Z,2.96
2022-11-25T19:01:32.857Z,3.23
2022-11-25T19:04:00.081Z,2.94
2022-11-25T19:06:30.173Z,3.15
2022-11-25T19:08:56.672Z,3.06
2022-11-25T19:11:30.220Z,3.23
2022-11-25T19:14:03.918Z,3.17
2022-11-25T19:16:30.439Z,3.05
2022-11-25T19:18:56.968Z,3.27
2022-11-25T19:21:23.325Z,3.32
2022-11-25T19:23:49.866Z,3.24
2022-11-25T19:26:23.674Z,3.29
2022-11-25T19:28:54.721Z,3.19
2022-11-25T19:31:21.366Z,2.93
2022-11-25T19:33:51.012Z,3.03
2022-11-25T19:36:23.740Z,2.92
2022-11-25T19:38:50.294Z,2.59
2022-11-25T19:41:16.746Z,2.78
2022-11-25T19:43:43.225Z,2.75
2022-11-25T19:46:33.113Z,2.67
2022-11-25T19:49:04.907Z,2.53
2022-11-25T19:51:33.930Z,2.58
2022-11-25T19:54:00.461Z,2.36
2022-11-25T19:56:27.243Z,2.71
2022-11-25T19:58:54.626Z,2.55
2022-11-25T20:01:30.388Z,2.50
2022-11-25T20:03:58.234Z,2.44
2022-11-25T20:06:25.819Z,2.55
2022-11-25T20:08:52.338Z,2.48
2022-11-25T20:11:19.267Z,2.63
2022-11-25T20:13:46.909Z,2.59
2022-11-25T20:16:22.732Z,2.37
2022-11-25T20:18:51.500Z,2.52
2022-11-25T20:21:26.400Z,2.53
2022-11-25T20:23:53.909Z,2.57
2022-11-25T20:26:38.066Z,2.57
2022-11-25T20:29:15.554Z,2.52
2022-11-25T20:31:42.134Z,2.48
2022-11-25T20:34:08.702Z,2.65
2022-11-25T20:36:35.351Z,2.70
2022-11-25T20:39:03.289Z,2.75
2022-11-25T20:41:30.738Z,2.81
2022-11-25T20:43:57.873Z,2.75
2022-11-25T20:46:29.384Z,2.65
2022-11-25T20:49:02.198Z,2.64
2022-11-25T20:51:29.059Z,2.54
2022-11-25T20:53:57.990Z,2.59
2022-11-25T20:56:26.839Z,2.70
2022-11-25T20:58:53.726Z,2.59
2022-11-25T21:01:20.599Z,2.66
2022-11-25T21:03:49.137Z,2.60
2022-11-25T21:06:25.661Z,2.71
2022-11-25T21:08:54.014Z,2.56
2022-11-25T21:11:21.691Z,2.54
2022-11-25T21:13:48.698Z,2.68
2022-11-25T21:16:15.466Z,2.68
2022-11-25T21:18:42.860Z,2.69
2022-11-25T21:21:19.448Z,2.75
2022-11-25T21:23:47.929Z,2.66
2022-11-25T21:26:20.665Z,2.69
2022-11-25T21:28:50.037Z,2.76
2022-11-25T21:31:22.435Z,2.68
2022-11-25T21:33:49.965Z,2.71
2022-11-25T21:36:27.121Z,2.57
2022-11-25T21:39:02.942Z,2.64
2022-11-25T21:41:29.671Z,2.71
2022-11-25T21:43:56.271Z,2.59
2022-11-25T21:46:26.660Z,2.54
2022-11-25T21:48:53.367Z,2.71
2022-11-25T21:51:24.032Z,2.76
2022-11-25T21:53:51.389Z,2.75
2022-11-25T21:56:30.876Z,2.79
2022-11-25T21:58:59.742Z,2.84
2022-11-25T22:01:26.416Z,2.74
2022-11-25T22:03:53.081Z,2.70
2022-11-25T22:06:26.253Z,2.66
2022-11-25T22:08:52.928Z,2.61
2022-11-25T22:11:28.683Z,2.71
2022-11-25T22:13:55.303Z,2.79
2022-11-25T22:16:28.958Z,2.71
2022-11-25T22:18:55.912Z,2.81
2022-11-25T22:21:22.879Z,2.82
2022-11-25T22:23:49.788Z,3.02
2022-11-25T22:26:21.371Z,3.11
2022-11-25T22:28:51.618Z,3.21
2022-11-25T22:31:20.250Z,3.00
2022-11-25T22:33:47.463Z,2.95
2022-11-25T22:36:34.027Z,3.10
2022-11-25T22:39:23.363Z,3.19
2022-11-25T22:42:07.412Z,3.04
2022-11-25T22:44:42.776Z,3.03
2022-11-25T22:47:22.846Z,2.99
2022-11-25T22:49:50.459Z,3.04
2022-11-25T22:52:21.944Z,3.02
2022-11-25T22:54:49.327Z,3.00
2022-11-25T22:57:17.041Z,2.86
2022-11-25T22:59:44.077Z,2.94
2022-11-25T23:18:13.835Z,2.86
2022-11-25T23:20:40.346Z,2.94
2022-11-25T23:23:21.476Z,3.06
2022-11-25T23:25:48.728Z,3.09
2022-11-25T23:28:16.395Z,3.07
2022-11-25T23:30:48.153Z,3.09
2022-11-25T23:33:22.828Z,3.05
2022-11-25T23:35:49.408Z,3.12
2022-11-25T23:38:21.502Z,3.17
2022-11-25T23:40:48.003Z,3.16
2022-11-25T23:43:15.614Z,3.17
2022-11-25T23:45:51.296Z,3.20
2022-11-25T23:48:20.497Z,3.29
2022-11-25T23:50:47.641Z,3.32
2022-11-25T23:53:36.034Z,3.46
2022-11-25T23:56:02.618Z,3.51
2022-11-25T23:58:29.222Z,3.41
